sensor_id;sensor_type;location;lat;lon;timestamp;temperature;humidity
5246;DHT22;54412;51.206;6.888;2022-09-23T00:01:01;12.80;99.90
5246;DHT22;54412;51.206;6.888;2022-09-23T00:03:34;12.80;99.90
5246;DHT22;54412;51.206;6.888;2022-09-23T00:06:17;12.80;99.90
5246;DHT22;54412;51.206;6.888;2022-09-23T00:08:45;12.80;99.90
5246;DHT22;54412;51.206;6.888;2022-09-23T00:11:15;12.80;99.90
5246;DHT22;54412;51.206;6.888;2022-09-23T00:13:55;12.80;99.90
5246;DHT22;54412;51.206;6.888;2022-09-23T00:16:24;12.80;99.90
5246;DHT22;54412;51.206;6.888;2022-09-23T00:18:53;12.80;99.90
5246;DHT22;54412;51.206;6.888;2022-09-23T00:21:19;12.80;99.90
5246;DHT22;54412;51.206;6.888;2022-09-23T00:23:46;12.80;99.90
5246;DHT22;54412;51.206;6.888;2022-09-23T00:26:15;12.80;99.90
5246;DHT22;54412;51.206;6.888;2022-09-23T00:28:43;12.80;99.90
5246;DHT22;54412;51.206;6.888;2022-09-23T00:31:12;12.70;99.90
5246;DHT22;54412;51.206;6.888;2022-09-23T00:33:41;12.70;99.90
5246;DHT22;54412;51.206;6.888;2022-09-23T00:36:10;12.70;99.90
5246;DHT22;54412;51.206;6.888;2022-09-23T00:38:41;12.70;99.90
5246;DHT22;54412;51.206;6.888;2022-09-23T00:41:08;12.70;99.90
5246;DHT22;54412;51.206;6.888;2022-09-23T00:49:27;12.70;99.90
5246;DHT22;54412;51.206;6.888;2022-09-23T00:51:59;12.70;99.90
5246;DHT22;54412;51.206;6.888;2022-09-23T00:54:30;12.70;99.90
5246;DHT22;54412;51.206;6.888;2022-09-23T00:56:56;12.70;99.90
5246;DHT22;54412;51.206;6.888;2022-09-23T00:59:24;12.70;99.90
5246;DHT22;54412;51.206;6.888;2022-09-23T01:01:54;12.60;99.90
5246;DHT22;54412;51.206;6.888;2022-09-23T01:04:23;12.60;99.90
5246;DHT22;54412;51.206;6.888;2022-09-23T01:06:51;12.60;99.90
5246;DHT22;54412;51.206;6.888;2022-09-23T01:09:17;12.70;99.90
5246;DHT22;54412;51.206;6.888;2022-09-23T01:12:01;12.70;99.90
5246;DHT22;54412;51.206;6.888;2022-09-23T01:14:56;12.60;99.90
5246;DHT22;54412;51.206;6.888;2022-09-23T01:17:48;12.50;99.90
5246;DHT22;54412;51.206;6.888;2022-09-23T01:21:05;12.60;99.90
5246;DHT22;54412;51.206;6.888;2022-09-23T01:30:10;12.40;99.90
5246;DHT22;54412;51.206;6.888;2022-09-23T01:44:16;12.40;99.90
5246;DHT22;54412;51.206;6.888;2022-09-23T01:46:48;12.40;99.90
5246;DHT22;54412;51.206;6.888;2022-09-23T01:49:42;12.40;99.90
5246;DHT22;54412;51.206;6.888;2022-09-23T01:52:28;12.40;99.90
5246;DHT22;54412;51.206;6.888;2022-09-23T01:55:07;12.40;99.90
5246;DHT22;54412;51.206;6.888;2022-09-23T01:57:43;12.30;99.90
5246;DHT22;54412;51.206;6.888;2022-09-23T02:00:16;12.30;99.90
5246;DHT22;54412;51.206;6.888;2022-09-23T02:02:54;12.40;99.90
5246;DHT22;54412;51.206;6.888;2022-09-23T02:05:38;12.40;99.90
5246;DHT22;54412;51.206;6.888;2022-09-23T02:08:23;12.30;99.90
5246;DHT22;54412;51.206;6.888;2022-09-23T02:11:02;12.30;99.90
5246;DHT22;54412;51.206;6.888;2022-09-23T02:14:23;12.30;99.90
5246;DHT22;54412;51.206;6.888;2022-09-23T02:16:44;12.30;99.90
5246;DHT22;54412;51.206;6.888;2022-09-23T02:25:16;12.20;99.90
5246;DHT22;54412;51.206;6.888;2022-09-23T02:28:11;12.20;99.90
5246;DHT22;54412;51.206;6.888;2022-09-23T02:30:50;12.20;99.90
5246;DHT22;54412;51.206;6.888;2022-09-23T02:33:35;12.20;99.90
5246;DHT22;54412;51.206;6.888;2022-09-23T02:36:12;12.10;99.90
5246;DHT22;54412;51.206;6.888;2022-09-23T02:38:52;12.20;99.90
5246;DHT22;54412;51.206;6.888;2022-09-23T02:44:28;12.20;99.90
5246;DHT22;54412;51.206;6.888;2022-09-23T02:46:54;12.20;99.90
5246;DHT22;54412;51.206;6.888;2022-09-23T02:49:26;12.20;99.90
5246;DHT22;54412;51.206;6.888;2022-09-23T02:51:54;12.20;99.90
5246;DHT22;54412;51.206;6.888;2022-09-23T02:54:23;12.20;99.90
5246;DHT22;54412;51.206;6.888;2022-09-23T02:56:52;12.10;99.90
5246;DHT22;54412;51.206;6.888;2022-09-23T02:59:22;12.10;99.90
5246;DHT22;54412;51.206;6.888;2022-09-23T03:02:11;12.10;99.90
5246;DHT22;54412;51.206;6.888;2022-09-23T03:04:57;12.10;99.90
5246;DHT22;54412;51.206;6.888;2022-09-23T03:10:38;12.10;99.90
5246;DHT22;54412;51.206;6.888;2022-09-23T03:13:31;12.00;99.90
5246;DHT22;54412;51.206;6.888;2022-09-23T03:16:11;12.00;99.90
5246;DHT22;54412;51.206;6.888;2022-09-23T03:19:13;12.00;99.90
5246;DHT22;54412;51.206;6.888;2022-09-23T03:21:50;12.00;99.90
5246;DHT22;54412;51.206;6.888;2022-09-23T03:24:27;11.80;99.90
5246;DHT22;54412;51.206;6.888;2022-09-23T03:26:59;11.70;99.90
5246;DHT22;54412;51.206;6.888;2022-09-23T03:29:28;11.70;99.90
5246;DHT22;54412;51.206;6.888;2022-09-23T03:31:57;11.70;99.90
5246;DHT22;54412;51.206;6.888;2022-09-23T03:34:28;11.70;99.90
5246;DHT22;54412;51.206;6.888;2022-09-23T03:37:13;11.70;99.90
5246;DHT22;54412;51.206;6.888;2022-09-23T03:39:53;11.60;99.90
5246;DHT22;54412;51.206;6.888;2022-09-23T03:42:29;11.50;99.90
5246;DHT22;54412;51.206;6.888;2022-09-23T03:44:57;11.50;99.90
5246;DHT22;54412;51.206;6.888;2022-09-23T03:47:27;11.60;99.90
5246;DHT22;54412;51.206;6.888;2022-09-23T03:50:06;11.70;99.90
5246;DHT22;54412;51.206;6.888;2022-09-23T03:52:31;11.80;99.90
5246;DHT22;54412;51.206;6.888;2022-09-23T03:54:57;11.80;99.90
5246;DHT22;54412;51.206;6.888;2022-09-23T03:57:23;11.80;99.90
5246;DHT22;54412;51.206;6.888;2022-09-23T03:59:50;11.70;99.90
5246;DHT22;54412;51.206;6.888;2022-09-23T04:02:18;11.70;99.90
5246;DHT22;54412;51.206;6.888;2022-09-23T04:04:44;11.60;99.90
5246;DHT22;54412;51.206;6.888;2022-09-23T04:07:11;11.60;99.90
5246;DHT22;54412;51.206;6.888;2022-09-23T04:09:39;11.60;99.90
5246;DHT22;54412;51.206;6.888;2022-09-23T04:12:05;11.50;99.90
5246;DHT22;54412;51.206;6.888;2022-09-23T04:14:31;11.40;99.90
5246;DHT22;54412;51.206;6.888;2022-09-23T04:16:57;11.20;99.90
5246;DHT22;54412;51.206;6.888;2022-09-23T04:19:23;11.20;99.90
5246;DHT22;54412;51.206;6.888;2022-09-23T04:21:49;11.20;99.90
5246;DHT22;54412;51.206;6.888;2022-09-23T04:24:16;11.20;99.90
5246;DHT22;54412;51.206;6.888;2022-09-23T04:26:42;11.10;99.90
5246;DHT22;54412;51.206;6.888;2022-09-23T04:29:08;11.20;99.90
5246;DHT22;54412;51.206;6.888;2022-09-23T04:31:35;11.30;99.90
5246;DHT22;54412;51.206;6.888;2022-09-23T04:34:01;11.40;99.90
5246;DHT22;54412;51.206;6.888;2022-09-23T04:36:26;11.40;99.90
5246;DHT22;54412;51.206;6.888;2022-09-23T04:38:54;11.30;99.90
5246;DHT22;54412;51.206;6.888;2022-09-23T04:41:20;11.30;99.90
5246;DHT22;54412;51.206;6.888;2022-09-23T04:43:46;11.30;99.90
5246;DHT22;54412;51.206;6.888;2022-09-23T04:46:14;11.30;99.90
5246;DHT22;54412;51.206;6.888;2022-09-23T04:48:41;11.30;99.90
5246;DHT22;54412;51.206;6.888;2022-09-23T04:51:12;11.40;99.90
5246;DHT22;54412;51.206;6.888;2022-09-23T04:53:41;11.40;99.90
5246;DHT22;54412;51.206;6.888;2022-09-23T04:56:13;11.40;99.90
5246;DHT22;54412;51.206;6.888;2022-09-23T04:58:40;11.30;99.90
5246;DHT22;54412;51.206;6.888;2022-09-23T05:01:14;11.30;99.90
5246;DHT22;54412;51.206;6.888;2022-09-23T05:03:43;11.30;99.90
5246;DHT22;54412;51.206;6.888;2022-09-23T05:06:11;11.20;99.90
5246;DHT22;54412;51.206;6.888;2022-09-23T05:08:39;11.30;99.90
5246;DHT22;54412;51.206;6.888;2022-09-23T05:11:06;11.20;99.90
5246;DHT22;54412;51.206;6.888;2022-09-23T05:13:33;11.20;99.90
5246;DHT22;54412;51.206;6.888;2022-09-23T05:16:01;11.30;99.90
5246;DHT22;54412;51.206;6.888;2022-09-23T05:18:35;11.30;99.90
5246;DHT22;54412;51.206;6.888;2022-09-23T05:21:05;11.30;99.90
5246;DHT22;54412;51.206;6.888;2022-09-23T05:23:32;11.20;99.90
5246;DHT22;54412;51.206;6.888;2022-09-23T05:25:59;11.30;99.90
5246;DHT22;54412;51.206;6.888;2022-09-23T05:28:28;11.40;99.90
5246;DHT22;54412;51.206;6.888;2022-09-23T05:31:10;11.30;99.90
5246;DHT22;54412;51.206;6.888;2022-09-23T05:33:42;11.30;99.90
5246;DHT22;54412;51.206;6.888;2022-09-23T05:36:11;11.30;99.90
5246;DHT22;54412;51.206;6.888;2022-09-23T05:38:37;11.30;99.90
5246;DHT22;54412;51.206;6.888;2022-09-23T05:41:07;11.40;99.90
5246;DHT22;54412;51.206;6.888;2022-09-23T05:43:35;11.40;99.90
5246;DHT22;54412;51.206;6.888;2022-09-23T05:46:03;11.40;99.90
5246;DHT22;54412;51.206;6.888;2022-09-23T05:48:30;11.30;99.90
5246;DHT22;54412;51.206;6.888;2022-09-23T05:50:57;11.40;99.90
5246;DHT22;54412;51.206;6.888;2022-09-23T05:53:24;11.40;99.90
5246;DHT22;54412;51.206;6.888;2022-09-23T05:55:50;11.50;99.90
5246;DHT22;54412;51.206;6.888;2022-09-23T05:58:18;11.40;99.90
5246;DHT22;54412;51.206;6.888;2022-09-23T06:00:45;11.40;99.90
5246;DHT22;54412;51.206;6.888;2022-09-23T06:03:14;11.40;99.90
5246;DHT22;54412;51.206;6.888;2022-09-23T06:05:42;11.50;99.90
5246;DHT22;54412;51.206;6.888;2022-09-23T06:08:08;11.50;99.90
5246;DHT22;54412;51.206;6.888;2022-09-23T06:10:40;11.60;99.90
5246;DHT22;54412;51.206;6.888;2022-09-23T06:13:07;11.50;99.90
5246;DHT22;54412;51.206;6.888;2022-09-23T06:15:34;11.60;99.90
5246;DHT22;54412;51.206;6.888;2022-09-23T06:18:00;11.50;99.90
5246;DHT22;54412;51.206;6.888;2022-09-23T06:20:26;11.60;99.90
5246;DHT22;54412;51.206;6.888;2022-09-23T06:22:53;11.60;99.90
5246;DHT22;54412;51.206;6.888;2022-09-23T06:25:19;11.60;99.90
5246;DHT22;54412;51.206;6.888;2022-09-23T06:27:54;11.70;99.90
5246;DHT22;54412;51.206;6.888;2022-09-23T06:30:21;11.80;99.90
5246;DHT22;54412;51.206;6.888;2022-09-23T06:32:49;11.90;99.90
5246;DHT22;54412;51.206;6.888;2022-09-23T06:35:20;11.90;99.90
5246;DHT22;54412;51.206;6.888;2022-09-23T06:37:48;11.90;99.90
5246;DHT22;54412;51.206;6.888;2022-09-23T06:40:14;12.00;99.90
5246;DHT22;54412;51.206;6.888;2022-09-23T06:42:41;12.10;99.90
5246;DHT22;54412;51.206;6.888;2022-09-23T06:45:08;12.20;99.90
5246;DHT22;54412;51.206;6.888;2022-09-23T06:47:39;12.40;99.90
5246;DHT22;54412;51.206;6.888;2022-09-23T06:50:06;12.40;99.90
5246;DHT22;54412;51.206;6.888;2022-09-23T06:52:33;12.50;99.90
5246;DHT22;54412;51.206;6.888;2022-09-23T06:54:59;12.60;99.90
5246;DHT22;54412;51.206;6.888;2022-09-23T06:57:28;12.70;99.90
5246;DHT22;54412;51.206;6.888;2022-09-23T06:59:55;12.90;99.90
5246;DHT22;54412;51.206;6.888;2022-09-23T07:02:23;12.90;99.90
5246;DHT22;54412;51.206;6.888;2022-09-23T07:04:50;12.90;99.90
5246;DHT22;54412;51.206;6.888;2022-09-23T07:07:16;12.90;99.90
5246;DHT22;54412;51.206;6.888;2022-09-23T07:09:43;12.90;99.90
5246;DHT22;54412;51.206;6.888;2022-09-23T07:12:09;13.00;99.90
5246;DHT22;54412;51.206;6.888;2022-09-23T07:14:35;13.20;99.90
5246;DHT22;54412;51.206;6.888;2022-09-23T07:17:01;13.40;99.90
5246;DHT22;54412;51.206;6.888;2022-09-23T07:19:28;13.50;99.90
5246;DHT22;54412;51.206;6.888;2022-09-23T07:21:53;13.60;99.90
5246;DHT22;54412;51.206;6.888;2022-09-23T07:24:19;13.70;99.90
5246;DHT22;54412;51.206;6.888;2022-09-23T07:26:45;13.70;99.90
5246;DHT22;54412;51.206;6.888;2022-09-23T07:29:12;13.60;99.90
5246;DHT22;54412;51.206;6.888;2022-09-23T07:31:38;13.50;99.90
5246;DHT22;54412;51.206;6.888;2022-09-23T07:34:05;13.60;99.90
5246;DHT22;54412;51.206;6.888;2022-09-23T07:36:32;13.60;99.90
5246;DHT22;54412;51.206;6.888;2022-09-23T07:39:01;13.60;99.90
5246;DHT22;54412;51.206;6.888;2022-09-23T07:41:31;13.60;99.90
5246;DHT22;54412;51.206;6.888;2022-09-23T07:43:58;13.60;99.90
5246;DHT22;54412;51.206;6.888;2022-09-23T07:46:29;13.60;99.90
5246;DHT22;54412;51.206;6.888;2022-09-23T07:48:56;13.60;99.90
5246;DHT22;54412;51.206;6.888;2022-09-23T07:51:26;13.70;99.90
5246;DHT22;54412;51.206;6.888;2022-09-23T07:53:54;13.80;99.90
5246;DHT22;54412;51.206;6.888;2022-09-23T07:56:24;13.70;99.90
5246;DHT22;54412;51.206;6.888;2022-09-23T07:58:53;13.70;99.90
5246;DHT22;54412;51.206;6.888;2022-09-23T08:01:36;13.70;99.90
5246;DHT22;54412;51.206;6.888;2022-09-23T08:04:06;13.80;99.90
5246;DHT22;54412;51.206;6.888;2022-09-23T08:06:40;13.90;99.90
5246;DHT22;54412;51.206;6.888;2022-09-23T08:09:07;14.20;99.90
5246;DHT22;54412;51.206;6.888;2022-09-23T08:11:33;14.20;99.90
5246;DHT22;54412;51.206;6.888;2022-09-23T08:13:59;14.20;99.90
5246;DHT22;54412;51.206;6.888;2022-09-23T08:16:25;14.30;99.90
5246;DHT22;54412;51.206;6.888;2022-09-23T08:18:51;14.40;99.90
5246;DHT22;54412;51.206;6.888;2022-09-23T08:21:20;14.50;99.90
5246;DHT22;54412;51.206;6.888;2022-09-23T08:23:47;14.70;99.90
5246;DHT22;54412;51.206;6.888;2022-09-23T08:26:13;14.80;99.90
5246;DHT22;54412;51.206;6.888;2022-09-23T08:28:39;14.90;99.90
5246;DHT22;54412;51.206;6.888;2022-09-23T08:31:05;14.90;99.90
5246;DHT22;54412;51.206;6.888;2022-09-23T08:33:32;14.90;99.90
5246;DHT22;54412;51.206;6.888;2022-09-23T08:36:00;14.90;99.90
5246;DHT22;54412;51.206;6.888;2022-09-23T08:38:28;15.00;99.90
5246;DHT22;54412;51.206;6.888;2022-09-23T08:44:07;15.20;99.90
5246;DHT22;54412;51.206;6.888;2022-09-23T08:46:53;15.20;99.90
5246;DHT22;54412;51.206;6.888;2022-09-23T08:49:35;15.30;99.90
5246;DHT22;54412;51.206;6.888;2022-09-23T08:52:18;15.50;99.90
5246;DHT22;54412;51.206;6.888;2022-09-23T08:55:08;15.80;99.90
5246;DHT22;54412;51.206;6.888;2022-09-23T09:03:57;15.60;99.90
5246;DHT22;54412;51.206;6.888;2022-09-23T09:06:35;15.30;99.90
5246;DHT22;54412;51.206;6.888;2022-09-23T09:09:11;15.30;99.90
5246;DHT22;54412;51.206;6.888;2022-09-23T09:11:51;15.20;99.90
5246;DHT22;54412;51.206;6.888;2022-09-23T09:14:53;15.10;99.90
5246;DHT22;54412;51.206;6.888;2022-09-23T09:20:39;15.20;99.90
5246;DHT22;54412;51.206;6.888;2022-09-23T09:25:56;15.40;99.90
5246;DHT22;54412;51.206;6.888;2022-09-23T09:28:37;15.50;99.90
5246;DHT22;54412;51.206;6.888;2022-09-23T09:31:32;15.40;99.90
5246;DHT22;54412;51.206;6.888;2022-09-23T09:37:11;15.70;99.90
5246;DHT22;54412;51.206;6.888;2022-09-23T09:39:44;15.90;99.90
5246;DHT22;54412;51.206;6.888;2022-09-23T09:42:17;16.00;99.90
5246;DHT22;54412;51.206;6.888;2022-09-23T09:44:50;15.90;99.90
5246;DHT22;54412;51.206;6.888;2022-09-23T09:47:50;16.00;99.90
5246;DHT22;54412;51.206;6.888;2022-09-23T09:53:30;16.00;99.90
5246;DHT22;54412;51.206;6.888;2022-09-23T09:56:02;16.20;99.90
5246;DHT22;54412;51.206;6.888;2022-09-23T09:58:47;16.50;99.90
5246;DHT22;54412;51.206;6.888;2022-09-23T10:01:26;16.80;99.90
5246;DHT22;54412;51.206;6.888;2022-09-23T10:03:56;16.80;99.90
5246;DHT22;54412;51.206;6.888;2022-09-23T10:06:30;17.00;99.90
5246;DHT22;54412;51.206;6.888;2022-09-23T10:09:16;16.90;99.90
5246;DHT22;54412;51.206;6.888;2022-09-23T10:12:24;16.90;99.90
5246;DHT22;54412;51.206;6.888;2022-09-23T10:14:55;17.10;99.90
5246;DHT22;54412;51.206;6.888;2022-09-23T10:17:33;17.30;99.90
5246;DHT22;54412;51.206;6.888;2022-09-23T10:20:06;17.50;99.90
5246;DHT22;54412;51.206;6.888;2022-09-23T10:22:36;17.70;99.90
5246;DHT22;54412;51.206;6.888;2022-09-23T10:25:14;17.60;99.90
5246;DHT22;54412;51.206;6.888;2022-09-23T10:27:43;17.50;99.90
5246;DHT22;54412;51.206;6.888;2022-09-23T10:30:23;17.20;99.90
5246;DHT22;54412;51.206;6.888;2022-09-23T10:32:52;17.40;99.90
5246;DHT22;54412;51.206;6.888;2022-09-23T10:35:24;17.40;99.90
5246;DHT22;54412;51.206;6.888;2022-09-23T10:37:52;17.40;99.90
5246;DHT22;54412;51.206;6.888;2022-09-23T10:43:19;17.40;99.90
5246;DHT22;54412;51.206;6.888;2022-09-23T10:46:20;17.50;99.90
5246;DHT22;54412;51.206;6.888;2022-09-23T10:54:27;18.50;99.90
5246;DHT22;54412;51.206;6.888;2022-09-23T11:06:27;19.60;99.90
5246;DHT22;54412;51.206;6.888;2022-09-23T11:09:24;19.40;99.90
5246;DHT22;54412;51.206;6.888;2022-09-23T11:21:50;19.80;99.90
5246;DHT22;54412;51.206;6.888;2022-09-23T11:31:02;20.40;99.30
5246;DHT22;54412;51.206;6.888;2022-09-23T11:36:33;20.60;98.80
5246;DHT22;54412;51.206;6.888;2022-09-23T11:39:31;20.80;98.00
5246;DHT22;54412;51.206;6.888;2022-09-23T11:42:04;20.60;98.70
5246;DHT22;54412;51.206;6.888;2022-09-23T11:44:41;21.00;98.80
5246;DHT22;54412;51.206;6.888;2022-09-23T11:47:30;20.90;98.00
5246;DHT22;54412;51.206;6.888;2022-09-23T11:52:50;20.10;98.80
5246;DHT22;54412;51.206;6.888;2022-09-23T11:55:44;20.30;98.30
5246;DHT22;54412;51.206;6.888;2022-09-23T11:58:22;19.90;98.70
5246;DHT22;54412;51.206;6.888;2022-09-23T12:01:00;19.70;99.50
5246;DHT22;54412;51.206;6.888;2022-09-23T12:06:08;19.70;98.60
5246;DHT22;54412;51.206;6.888;2022-09-23T12:08:40;19.70;99.10
5246;DHT22;54412;51.206;6.888;2022-09-23T12:11:26;19.80;99.40
5246;DHT22;54412;51.206;6.888;2022-09-23T12:14:18;20.00;99.80
5246;DHT22;54412;51.206;6.888;2022-09-23T12:25:54;19.20;99.80
5246;DHT22;54412;51.206;6.888;2022-09-23T12:28:37;19.10;99.90
5246;DHT22;54412;51.206;6.888;2022-09-23T12:31:15;19.10;99.90
5246;DHT22;54412;51.206;6.888;2022-09-23T12:33:51;19.00;99.90
5246;DHT22;54412;51.206;6.888;2022-09-23T12:36:45;19.00;99.90
5246;DHT22;54412;51.206;6.888;2022-09-23T12:39:16;18.90;99.90
5246;DHT22;54412;51.206;6.888;2022-09-23T12:41:48;19.10;99.90
5246;DHT22;54412;51.206;6.888;2022-09-23T12:44:34;18.90;98.90
5246;DHT22;54412;51.206;6.888;2022-09-23T12:49:51;18.80;99.90
5246;DHT22;54412;51.206;6.888;2022-09-23T12:54:47;18.90;99.90
5246;DHT22;54412;51.206;6.888;2022-09-23T13:05:22;18.40;99.90
5246;DHT22;54412;51.206;6.888;2022-09-23T13:08:15;18.30;99.90
5246;DHT22;54412;51.206;6.888;2022-09-23T13:10:54;18.30;99.90
5246;DHT22;54412;51.206;6.888;2022-09-23T13:13:41;18.20;99.90
5246;DHT22;54412;51.206;6.888;2022-09-23T13:16:28;18.20;99.90
5246;DHT22;54412;51.206;6.888;2022-09-23T13:22:02;18.20;99.90
5246;DHT22;54412;51.206;6.888;2022-09-23T13:27:29;18.10;99.90
5246;DHT22;54412;51.206;6.888;2022-09-23T13:29:59;18.10;99.90
5246;DHT22;54412;51.206;6.888;2022-09-23T13:32:32;18.10;99.90
5246;DHT22;54412;51.206;6.888;2022-09-23T13:37:56;18.20;99.90
5246;DHT22;54412;51.206;6.888;2022-09-23T13:40:28;18.20;99.90
5246;DHT22;54412;51.206;6.888;2022-09-23T13:43:02;18.10;99.90
5246;DHT22;54412;51.206;6.888;2022-09-23T13:45:35;18.10;99.90
5246;DHT22;54412;51.206;6.888;2022-09-23T13:48:11;18.00;99.90
5246;DHT22;54412;51.206;6.888;2022-09-23T13:50:42;18.10;99.90
5246;DHT22;54412;51.206;6.888;2022-09-23T13:53:26;18.10;99.90
5246;DHT22;54412;51.206;6.888;2022-09-23T13:56:03;18.10;99.90
5246;DHT22;54412;51.206;6.888;2022-09-23T13:58:31;18.10;99.90
5246;DHT22;54412;51.206;6.888;2022-09-23T14:00:59;18.00;99.90
5246;DHT22;54412;51.206;6.888;2022-09-23T14:03:29;18.10;99.90
5246;DHT22;54412;51.206;6.888;2022-09-23T14:05:58;18.10;99.90
5246;DHT22;54412;51.206;6.888;2022-09-23T14:08:27;18.10;99.90
5246;DHT22;54412;51.206;6.888;2022-09-23T14:10:55;18.10;99.90
5246;DHT22;54412;51.206;6.888;2022-09-23T14:13:28;18.00;99.90
5246;DHT22;54412;51.206;6.888;2022-09-23T14:16:01;18.00;99.90
5246;DHT22;54412;51.206;6.888;2022-09-23T14:18:43;18.10;99.90
5246;DHT22;54412;51.206;6.888;2022-09-23T14:21:31;18.20;99.90
5246;DHT22;54412;51.206;6.888;2022-09-23T14:24:28;18.10;99.90
5246;DHT22;54412;51.206;6.888;2022-09-23T14:27:13;18.10;99.90
5246;DHT22;54412;51.206;6.888;2022-09-23T14:29:44;18.00;99.90
5246;DHT22;54412;51.206;6.888;2022-09-23T14:32:19;18.00;99.90
5246;DHT22;54412;51.206;6.888;2022-09-23T14:34:49;18.10;99.90
5246;DHT22;54412;51.206;6.888;2022-09-23T14:40:18;18.10;99.90
5246;DHT22;54412;51.206;6.888;2022-09-23T14:43:15;18.00;99.90
5246;DHT22;54412;51.206;6.888;2022-09-23T14:45:50;18.00;99.90
5246;DHT22;54412;51.206;6.888;2022-09-23T14:48:30;18.00;99.90
5246;DHT22;54412;51.206;6.888;2022-09-23T14:51:03;17.90;99.90
5246;DHT22;54412;51.206;6.888;2022-09-23T14:53:41;17.90;99.90
5246;DHT22;54412;51.206;6.888;2022-09-23T14:56:11;17.90;99.90
5246;DHT22;54412;51.206;6.888;2022-09-23T15:01:25;17.90;99.90
5246;DHT22;54412;51.206;6.888;2022-09-23T15:06:36;17.80;99.90
5246;DHT22;54412;51.206;6.888;2022-09-23T15:09:04;17.80;99.90
5246;DHT22;54412;51.206;6.888;2022-09-23T15:11:32;17.70;99.90
5246;DHT22;54412;51.206;6.888;2022-09-23T15:14:01;17.70;99.90
5246;DHT22;54412;51.206;6.888;2022-09-23T15:16:29;17.70;99.90
5246;DHT22;54412;51.206;6.888;2022-09-23T15:18:58;17.80;99.90
5246;DHT22;54412;51.206;6.888;2022-09-23T15:21:38;17.70;99.90
5246;DHT22;54412;51.206;6.888;2022-09-23T15:24:31;17.70;99.90
5246;DHT22;54412;51.206;6.888;2022-09-23T15:26:59;17.70;99.90
5246;DHT22;54412;51.206;6.888;2022-09-23T15:29:25;17.60;99.90
5246;DHT22;54412;51.206;6.888;2022-09-23T15:31:51;17.60;99.90
5246;DHT22;54412;51.206;6.888;2022-09-23T15:34:17;17.60;99.90
5246;DHT22;54412;51.206;6.888;2022-09-23T15:36:46;17.60;99.90
5246;DHT22;54412;51.206;6.888;2022-09-23T15:39:12;17.50;99.90
5246;DHT22;54412;51.206;6.888;2022-09-23T15:41:39;17.50;99.90
5246;DHT22;54412;51.206;6.888;2022-09-23T15:44:15;17.50;99.90
5246;DHT22;54412;51.206;6.888;2022-09-23T15:46:47;17.50;99.90
5246;DHT22;54412;51.206;6.888;2022-09-23T15:49:33;17.40;99.90
5246;DHT22;54412;51.206;6.888;2022-09-23T15:52:02;17.40;99.90
5246;DHT22;54412;51.206;6.888;2022-09-23T15:54:30;17.40;99.90
5246;DHT22;54412;51.206;6.888;2022-09-23T15:56:59;17.30;99.90
5246;DHT22;54412;51.206;6.888;2022-09-23T15:59:28;17.30;99.90
5246;DHT22;54412;51.206;6.888;2022-09-23T16:01:56;17.40;99.90
5246;DHT22;54412;51.206;6.888;2022-09-23T16:04:26;17.30;99.90
5246;DHT22;54412;51.206;6.888;2022-09-23T16:06:52;17.30;99.90
5246;DHT22;54412;51.206;6.888;2022-09-23T16:09:18;17.30;99.90
5246;DHT22;54412;51.206;6.888;2022-09-23T16:11:45;17.40;99.90
5246;DHT22;54412;51.206;6.888;2022-09-23T16:14:15;17.30;99.90
5246;DHT22;54412;51.206;6.888;2022-09-23T16:16:42;17.30;99.90
5246;DHT22;54412;51.206;6.888;2022-09-23T16:19:10;17.20;99.90
5246;DHT22;54412;51.206;6.888;2022-09-23T16:21:37;17.20;99.90
5246;DHT22;54412;51.206;6.888;2022-09-23T16:24:10;17.30;99.90
5246;DHT22;54412;51.206;6.888;2022-09-23T16:26:39;17.20;99.90
5246;DHT22;54412;51.206;6.888;2022-09-23T16:29:08;17.20;99.90
5246;DHT22;54412;51.206;6.888;2022-09-23T16:31:36;17.20;99.90
5246;DHT22;54412;51.206;6.888;2022-09-23T16:34:03;17.20;99.90
5246;DHT22;54412;51.206;6.888;2022-09-23T16:36:31;17.10;99.90
5246;DHT22;54412;51.206;6.888;2022-09-23T16:39:05;17.10;99.90
5246;DHT22;54412;51.206;6.888;2022-09-23T16:41:34;17.10;99.90
5246;DHT22;54412;51.206;6.888;2022-09-23T16:44:04;17.10;99.90
5246;DHT22;54412;51.206;6.888;2022-09-23T16:46:33;17.00;99.90
5246;DHT22;54412;51.206;6.888;2022-09-23T16:48:59;16.90;99.90
5246;DHT22;54412;51.206;6.888;2022-09-23T16:51:27;16.90;99.90
5246;DHT22;54412;51.206;6.888;2022-09-23T16:53:56;16.80;99.90
5246;DHT22;54412;51.206;6.888;2022-09-23T16:56:26;16.80;99.90
5246;DHT22;54412;51.206;6.888;2022-09-23T16:58:53;16.80;99.90
5246;DHT22;54412;51.206;6.888;2022-09-23T17:01:24;16.70;99.90
5246;DHT22;54412;51.206;6.888;2022-09-23T17:04:10;16.70;99.90
5246;DHT22;54412;51.206;6.888;2022-09-23T17:06:45;16.70;99.90
5246;DHT22;54412;51.206;6.888;2022-09-23T17:09:15;16.60;99.90
5246;DHT22;54412;51.206;6.888;2022-09-23T17:11:43;16.60;99.90
5246;DHT22;54412;51.206;6.888;2022-09-23T17:14:12;16.50;99.90
5246;DHT22;54412;51.206;6.888;2022-09-23T17:16:38;16.50;99.90
5246;DHT22;54412;51.206;6.888;2022-09-23T17:19:05;16.50;99.90
5246;DHT22;54412;51.206;6.888;2022-09-23T17:21:32;16.50;99.90
5246;DHT22;54412;51.206;6.888;2022-09-23T17:23:59;16.50;99.90
5246;DHT22;54412;51.206;6.888;2022-09-23T17:26:26;16.50;99.90
5246;DHT22;54412;51.206;6.888;2022-09-23T17:28:54;16.50;99.90
5246;DHT22;54412;51.206;6.888;2022-09-23T17:31:23;16.40;99.90
5246;DHT22;54412;51.206;6.888;2022-09-23T17:33:50;16.40;99.90
5246;DHT22;54412;51.206;6.888;2022-09-23T17:36:17;16.40;99.90
5246;DHT22;54412;51.206;6.888;2022-09-23T17:38:45;16.40;99.90
5246;DHT22;54412;51.206;6.888;2022-09-23T17:41:13;16.40;99.90
5246;DHT22;54412;51.206;6.888;2022-09-23T17:43:39;16.40;99.90
5246;DHT22;54412;51.206;6.888;2022-09-23T17:46:07;16.30;99.90
5246;DHT22;54412;51.206;6.888;2022-09-23T17:48:36;16.40;99.90
5246;DHT22;54412;51.206;6.888;2022-09-23T17:51:10;16.30;99.90
5246;DHT22;54412;51.206;6.888;2022-09-23T17:53:43;16.30;99.90
5246;DHT22;54412;51.206;6.888;2022-09-23T17:56:14;16.30;99.90
5246;DHT22;54412;51.206;6.888;2022-09-23T17:58:42;16.20;99.90
5246;DHT22;54412;51.206;6.888;2022-09-23T18:01:11;16.20;99.90
5246;DHT22;54412;51.206;6.888;2022-09-23T18:03:42;16.20;99.90
5246;DHT22;54412;51.206;6.888;2022-09-23T18:06:10;16.20;99.90
5246;DHT22;54412;51.206;6.888;2022-09-23T18:08:42;16.10;99.90
5246;DHT22;54412;51.206;6.888;2022-09-23T18:11:25;16.10;99.90
5246;DHT22;54412;51.206;6.888;2022-09-23T18:14:00;16.00;99.90
5246;DHT22;54412;51.206;6.888;2022-09-23T18:16:33;16.00;99.90
5246;DHT22;54412;51.206;6.888;2022-09-23T18:19:03;16.00;99.90
5246;DHT22;54412;51.206;6.888;2022-09-23T18:21:35;15.90;99.90
5246;DHT22;54412;51.206;6.888;2022-09-23T18:24:02;15.90;99.90
5246;DHT22;54412;51.206;6.888;2022-09-23T18:26:28;15.90;99.90
5246;DHT22;54412;51.206;6.888;2022-09-23T18:28:56;15.80;99.90
5246;DHT22;54412;51.206;6.888;2022-09-23T18:31:25;15.80;99.90
5246;DHT22;54412;51.206;6.888;2022-09-23T18:33:54;15.80;99.90
5246;DHT22;54412;51.206;6.888;2022-09-23T18:36:23;15.80;99.90
5246;DHT22;54412;51.206;6.888;2022-09-23T18:38:49;15.70;99.90